createdAt,value
2023-04-17T00:01:16.689Z,74.66
2023-04-17T00:06:19.056Z,75.02
2023-04-17T00:11:21.606Z,75.14
2023-04-17T00:16:23.001Z,74.12
2023-04-17T00:21:24.346Z,74.84
2023-04-17T00:26:25.819Z,74.74
2023-04-17T00:31:27.073Z,74.26
2023-04-17T00:36:28.307Z,74.16
2023-04-17T00:41:29.617Z,76.08
2023-04-17T00:46:31.416Z,76.45
2023-04-17T00:51:32.650Z,76.32
2023-04-17T00:56:33.888Z,75.79
2023-04-17T01:01:35.673Z,74.72
2023-04-17T01:06:37.002Z,74.59
2023-04-17T01:11:39.246Z,73.75
2023-04-17T01:16:40.578Z,72.97
2023-04-17T01:21:42.153Z,72.81
2023-04-17T01:26:43.670Z,72.94
2023-04-17T01:31:44.895Z,73.30
2023-04-17T01:36:46.333Z,73.48
2023-04-17T01:41:47.672Z,73.58
2023-04-17T01:46:48.948Z,75.10
2023-04-17T01:51:50.180Z,76.09
2023-04-17T01:56:51.455Z,75.06
2023-04-17T02:01:52.762Z,75.32
2023-04-17T02:06:54.128Z,75.66
2023-04-17T02:11:56.906Z,75.67
2023-04-17T02:16:58.282Z,75.51
2023-04-17T02:21:59.545Z,75.14
2023-04-17T02:27:00.840Z,74.13
2023-04-17T02:32:02.257Z,73.49
2023-04-17T02:37:03.544Z,73.88
2023-04-17T02:42:04.820Z,73.84
2023-04-17T02:47:06.074Z,73.33
2023-04-17T02:52:07.460Z,73.04
2023-04-17T02:57:08.685Z,73.60
2023-04-17T03:02:10.086Z,73.95
2023-04-17T03:07:11.755Z,73.83
2023-04-17T03:12:13.030Z,73.74
2023-04-17T03:17:14.238Z,73.85
2023-04-17T03:22:15.593Z,74.13
2023-04-17T03:27:16.926Z,73.91
2023-04-17T03:32:18.364Z,74.54
2023-04-17T03:37:19.822Z,75.32
2023-04-17T03:42:21.166Z,75.69
2023-04-17T03:47:22.465Z,74.83
2023-04-17T03:52:23.741Z,74.82
2023-04-17T03:57:25.021Z,74.09
2023-04-17T04:02:26.405Z,73.93
2023-04-17T04:07:27.826Z,74.57
2023-04-17T04:12:29.111Z,74.76
2023-04-17T04:17:30.405Z,75.46
2023-04-17T04:22:31.741Z,76.12
2023-04-17T04:27:33.087Z,75.80
2023-04-17T04:32:34.387Z,75.58
2023-04-17T04:37:36.026Z,76.23
2023-04-17T04:42:37.839Z,76.08
2023-04-17T04:47:39.118Z,76.32
2023-04-17T04:52:40.430Z,76.23
2023-04-17T04:57:41.995Z,76.61
2023-04-17T05:02:43.435Z,77.43
2023-04-17T05:07:44.816Z,77.27
2023-04-17T05:12:46.138Z,76.88
2023-04-17T05:17:47.915Z,76.77
2023-04-17T05:22:49.797Z,77.11
2023-04-17T05:27:51.098Z,76.89
2023-04-17T05:32:53.975Z,76.72
2023-04-17T05:37:56.103Z,76.49
2023-04-17T05:42:57.341Z,76.78
2023-04-17T05:47:58.606Z,76.88
2023-04-17T05:52:59.932Z,76.94
2023-04-17T05:58:10.545Z,78.44
2023-04-17T06:03:23.961Z,77.80
2023-04-17T06:08:26.135Z,78.06
2023-04-17T06:13:27.463Z,77.57
2023-04-17T06:18:28.759Z,78.40
2023-04-17T06:23:29.974Z,81.12
2023-04-17T06:28:32.260Z,85.54
2023-04-17T06:33:33.559Z,86.52
2023-04-17T06:38:34.857Z,86.49
2023-04-17T06:43:36.244Z,87.98
2023-04-17T06:48:37.483Z,85.81
2023-04-17T06:53:38.883Z,82.83
2023-04-17T06:58:48.900Z,82.02
2023-04-17T07:03:50.370Z,82.91
2023-04-17T07:08:53.501Z,82.54
2023-04-17T07:13:56.274Z,79.83
2023-04-17T07:18:57.552Z,78.13
2023-04-17T07:23:58.835Z,78.37
2023-04-17T07:29:00.333Z,75.96
2023-04-17T07:34:01.616Z,73.88
2023-04-17T07:39:03.269Z,74.43
2023-04-17T07:44:05.796Z,71.90
2023-04-17T07:49:07.041Z,70.53
2023-04-17T07:54:08.318Z,72.28
2023-04-17T07:59:09.830Z,72.63
2023-04-17T08:04:11.571Z,71.85
2023-04-17T08:09:13.256Z,71.63
2023-04-17T08:14:16.309Z,72.24
2023-04-17T08:19:17.637Z,68.28
2023-04-17T08:24:20.034Z,66.48
2023-04-17T08:29:22.691Z,63.83
2023-04-17T08:34:23.932Z,61.31
2023-04-17T08:39:25.196Z,62.23
2023-04-17T08:44:26.645Z,61.70
2023-04-17T08:49:28.369Z,63.26
2023-04-17T08:54:29.682Z,60.52
2023-04-17T08:59:31.053Z,60.33
2023-04-17T09:04:32.447Z,58.51
2023-04-17T09:09:33.899Z,58.72
2023-04-17T09:14:35.209Z,56.47
2023-04-17T09:19:36.617Z,53.59
2023-04-17T09:24:37.989Z,56.08
2023-04-17T09:29:39.316Z,54.96
2023-04-17T09:34:40.565Z,53.24
2023-04-17T09:39:43.005Z,52.09
2023-04-17T09:44:45.012Z,53.38
2023-04-17T09:49:49.544Z,50.96
2023-04-17T09:54:54.174Z,53.37
2023-04-17T09:59:59.560Z,57.40
2023-04-17T10:05:00.854Z,57.76
2023-04-17T10:10:03.255Z,59.59
2023-04-17T10:15:04.879Z,60.87
2023-04-17T10:20:06.125Z,65.26
2023-04-17T10:25:07.431Z,66.75
2023-04-17T10:30:12.930Z,66.36
2023-04-17T10:35:14.260Z,68.65
2023-04-17T10:40:20.841Z,70.32
2023-04-17T10:45:24.798Z,71.43
2023-04-17T10:50:26.048Z,70.98
2023-04-17T10:55:27.415Z,70.92
2023-04-17T11:00:32.224Z,71.63
2023-04-17T11:05:34.523Z,66.84
2023-04-17T11:10:36.378Z,66.38
2023-04-17T11:15:39.721Z,65.08
2023-04-17T11:20:40.974Z,65.76
2023-04-17T11:25:43.043Z,63.10
2023-04-17T11:30:45.331Z,59.95
2023-04-17T11:35:47.197Z,60.75
2023-04-17T11:40:48.664Z,59.51
2023-04-17T11:45:49.982Z,58.27
2023-04-17T11:50:51.358Z,61.12
2023-04-17T11:55:52.630Z,63.21
2023-04-17T12:00:56.102Z,65.42
2023-04-17T12:05:57.543Z,67.24
2023-04-17T12:10:58.843Z,67.60
2023-04-17T12:16:00.260Z,68.69
2023-04-17T12:21:01.657Z,68.14
2023-04-17T12:26:03.133Z,62.47
2023-04-17T12:31:04.737Z,59.43
2023-04-17T12:36:06.784Z,60.78
2023-04-17T12:41:08.124Z,55.72
2023-04-17T12:46:09.452Z,55.15
2023-04-17T12:51:10.877Z,52.54
2023-04-17T12:56:12.167Z,51.53
2023-04-17T13:01:13.676Z,51.53
2023-04-17T13:06:16.861Z,49.72
2023-04-17T13:11:18.237Z,46.76
2023-04-17T13:16:19.581Z,45.46
2023-04-17T13:21:20.872Z,46.26
2023-04-17T13:26:22.157Z,49.66
2023-04-17T13:31:25.735Z,48.90
2023-04-17T13:36:27.732Z,48.72
2023-04-17T13:41:29.506Z,48.12
2023-04-17T13:46:31.929Z,49.69
2023-04-17T13:51:33.214Z,50.64
2023-04-17T13:56:34.457Z,51.01
2023-04-17T14:01:35.945Z,48.18
2023-04-17T14:06:37.202Z,49.37
2023-04-17T14:11:38.473Z,49.39
2023-04-17T14:16:39.775Z,55.43
2023-04-17T14:21:40.996Z,50.49
2023-04-17T14:26:42.574Z,50.88
2023-04-17T14:31:43.873Z,53.03
2023-04-17T14:36:45.306Z,52.40
2023-04-17T14:41:46.617Z,46.87
2023-04-17T14:46:48.671Z,47.57
2023-04-17T14:51:49.953Z,48.95
2023-04-17T14:56:51.265Z,49.64
2023-04-17T15:01:52.702Z,49.81
2023-04-17T15:06:54.130Z,51.48
2023-04-17T15:11:56.797Z,48.42
2023-04-17T15:16:59.003Z,49.25
2023-04-17T15:22:00.495Z,49.54
2023-04-17T15:27:01.869Z,47.37
2023-04-17T15:32:03.299Z,47.43
2023-04-17T15:37:04.563Z,48.03
2023-04-17T15:42:09.853Z,46.52
2023-04-17T15:47:11.212Z,44.57
2023-04-17T15:52:12.490Z,43.62
2023-04-17T15:57:13.720Z,43.46
2023-04-17T16:02:15.261Z,45.96
2023-04-17T16:07:16.731Z,49.48
2023-04-17T16:12:18.076Z,48.27
2023-04-17T16:17:19.432Z,48.54
2023-04-17T16:22:20.805Z,49.33
2023-04-17T16:27:22.277Z,51.28
2023-04-17T16:32:24.530Z,50.07
2023-04-17T16:37:25.810Z,50.58
2023-04-17T16:42:27.074Z,50.65
2023-04-17T16:47:29.481Z,51.03
2023-04-17T16:52:30.864Z,51.83
2023-04-17T16:57:32.146Z,51.99
2023-04-17T17:02:33.456Z,53.91
2023-04-17T17:07:34.811Z,54.53
2023-04-17T17:12:36.125Z,55.46
2023-04-17T17:17:37.868Z,56.41
2023-04-17T17:22:39.198Z,57.86
2023-04-17T17:27:40.446Z,59.62
2023-04-17T17:32:41.811Z,61.18
2023-04-17T17:37:43.259Z,62.55
2023-04-17T17:42:45.287Z,62.25
2023-04-17T17:47:46.699Z,62.49
2023-04-17T17:52:48.381Z,64.39
2023-04-17T17:57:49.920Z,65.58
2023-04-17T18:02:51.287Z,66.57
2023-04-17T18:07:52.663Z,67.34
2023-04-17T18:12:54.164Z,69.15
2023-04-17T18:17:55.730Z,70.99
2023-04-17T18:22:57.708Z,70.95
2023-04-17T18:27:59.103Z,71.82
2023-04-17T18:33:00.922Z,72.60
2023-04-17T18:38:04.396Z,74.57
2023-04-17T18:43:06.085Z,74.73
2023-04-17T18:48:07.501Z,72.68
2023-04-17T18:53:08.773Z,71.87
2023-04-17T18:58:10.041Z,71.69
2023-04-17T19:03:11.378Z,72.76
2023-04-17T19:08:13.896Z,74.06
2023-04-17T19:13:15.109Z,73.98
2023-04-17T19:18:16.374Z,74.22
2023-04-17T19:23:17.571Z,74.55
2023-04-17T19:28:18.853Z,74.13
2023-04-17T19:33:20.238Z,73.00
2023-04-17T19:38:21.558Z,73.09
2023-04-17T19:43:22.863Z,73.12
2023-04-17T19:48:24.166Z,71.99
2023-04-17T19:53:25.624Z,71.06
2023-04-17T19:58:26.823Z,71.20
2023-04-17T20:03:28.324Z,71.54
2023-04-17T20:08:29.732Z,72.49
2023-04-17T20:13:31.055Z,73.51
2023-04-17T20:18:33.732Z,74.08
2023-04-17T20:23:34.985Z,73.40
2023-04-17T20:28:36.256Z,75.14
2023-04-17T20:33:37.553Z,75.62
2023-04-17T20:38:38.808Z,74.75
2023-04-17T20:43:40.193Z,75.68
2023-04-17T20:48:41.491Z,75.55
2023-04-17T20:53:42.774Z,75.41
2023-04-17T20:58:43.985Z,76.58
2023-04-17T21:03:45.365Z,76.49
2023-04-17T21:08:46.737Z,77.41
2023-04-17T21:13:48.185Z,76.80
2023-04-17T21:18:51.268Z,75.44
2023-04-17T21:23:52.546Z,75.46
2023-04-17T21:28:53.832Z,74.56
2023-04-17T21:33:55.169Z,73.17
2023-04-17T21:38:56.548Z,72.27
2023-04-17T21:44:01.523Z,72.54
2023-04-17T21:49:02.856Z,72.29
2023-04-17T21:54:04.277Z,73.10
2023-04-17T21:59:05.824Z,73.03
2023-04-17T22:04:07.057Z,72.73
2023-04-17T22:09:08.808Z,72.47
2023-04-17T22:14:10.088Z,72.87
2023-04-17T22:19:11.318Z,72.58
2023-04-17T22:24:12.694Z,73.39
2023-04-17T22:29:14.125Z,74.49
2023-04-17T22:34:15.740Z,73.13
2023-04-17T22:39:17.284Z,73.75
2023-04-17T22:44:18.570Z,73.03
2023-04-17T22:49:20.104Z,73.85
2023-04-17T22:54:23.169Z,73.26
2023-04-17T22:59:24.628Z,73.56
2023-04-17T23:04:25.908Z,72.17
2023-04-17T23:09:27.143Z,71.68
2023-04-17T23:14:28.479Z,71.89
2023-04-17T23:19:29.833Z,71.92
2023-04-17T23:24:31.161Z,72.97
2023-04-17T23:29:32.522Z,74.08
2023-04-17T23:34:33.882Z,72.59
2023-04-17T23:39:35.184Z,72.44
2023-04-17T23:44:36.555Z,73.06
2023-04-17T23:49:37.808Z,73.44
2023-04-17T23:54:39.239Z,73.13
2023-04-17T23:59:40.643Z,72.68
